Time;durP1;ratioP1;P1;durP2;ratioP2;P2;SDS_P1;SDS_P2;PMS_P1;PMS_P2;Temp;Humidity;BMP_temperature;BMP_pressure;BME280_temperature;BME280_humidity;BME280_pressure;Samples;Min_cycle;Max_cycle;Signal;HPM_P1;HPM_P2
2021/12/21 00:02:12;;;;;;;9.73;2.30;;;;;;;-4.02;97.90;102597.34;4823068;29;20034;-78
2021/12/21 00:04:37;;;;;;;3.65;1.88;;;;;;;-4.01;98.10;102603.47;4824265;29;20512;-77
2021/12/21 00:07:05;;;;;;;2.95;1.88;;;;;;;-3.99;97.68;102600.78;4793573;29;20126;-77
2021/12/21 00:09:30;;;;;;;3.95;2.38;;;;;;;-3.98;97.86;102589.34;4791756;29;20034;-77
2021/12/21 00:11:57;;;;;;;4.18;2.20;;;;;;;-3.97;97.70;102594.56;4809808;29;20027;-77
2021/12/21 00:14:38;;;;;;;4.93;2.40;;;;;;;-4.03;97.91;102589.53;4808075;29;20489;-77
2021/12/21 00:17:17;;;;;;;3.28;1.92;;;;;;;-4.05;97.97;102580.84;4808602;29;20038;-78
2021/12/21 00:20:08;;;;;;;3.95;2.17;;;;;;;-4.06;97.87;102598.41;4806343;29;20048;-77
2021/12/21 00:25:18;;;;;;;6.35;2.30;;;;;;;-4.23;97.74;102577.19;4809729;29;20031;-77
2021/12/21 00:27:46;;;;;;;4.35;2.10;;;;;;;-4.13;97.91;102583.78;4793088;29;20034;-77
2021/12/21 00:30:12;;;;;;;5.47;2.05;;;;;;;-4.07;98.02;102591.44;4822812;29;20117;-78
2021/12/21 00:32:37;;;;;;;5.57;2.03;;;;;;;-4.11;98.07;102595.09;4808380;29;20537;-77
2021/12/21 00:35:03;;;;;;;4.07;2.20;;;;;;;-4.28;97.73;102577.34;4823931;29;20034;-78
2021/12/21 00:37:29;;;;;;;3.22;2.10;;;;;;;-4.20;97.86;102590.22;4829343;29;20034;-77
2021/12/21 00:39:55;;;;;;;5.35;2.60;;;;;;;-4.14;97.90;102599.59;4813584;29;20030;-77
2021/12/21 00:42:20;;;;;;;3.30;1.98;;;;;;;-4.14;98.07;102604.88;4813506;29;20055;-77
2021/12/21 00:44:46;;;;;;;3.97;2.00;;;;;;;-4.15;98.03;102608.41;4814360;29;20042;-77
2021/12/21 00:47:14;;;;;;;4.22;1.92;;;;;;;-4.17;97.98;102615.50;4797287;29;20030;-77
2021/12/21 00:49:44;;;;;;;5.13;1.90;;;;;;;-4.21;98.06;102604.25;4827793;29;20030;-78
2021/12/21 00:52:10;;;;;;;3.95;2.10;;;;;;;-4.38;98.00;102586.50;4814371;29;20046;-77
2021/12/21 00:54:35;;;;;;;5.75;2.55;;;;;;;-4.17;97.70;102621.63;4827769;29;20034;-77
2021/12/21 00:57:04;;;;;;;4.75;2.38;;;;;;;-4.41;97.93;102567.38;4829668;29;20124;-77
2021/12/21 00:59:30;;;;;;;5.05;2.70;;;;;;;-4.25;97.83;102602.66;4829263;29;20045;-77
2021/12/21 01:01:55;;;;;;;3.58;2.45;;;;;;;-4.26;97.75;102601.81;4814140;29;20038;-77
2021/12/21 01:04:26;;;;;;;4.38;2.10;;;;;;;-4.21;97.73;102614.75;4809209;29;20077;-77
2021/12/21 01:07:02;;;;;;;3.22;1.95;;;;;;;-4.30;97.82;102610.75;4796876;29;20061;-77
2021/12/21 01:09:59;;;;;;;4.32;2.15;;;;;;;-4.31;97.91;102608.16;4810709;29;20086;-77
2021/12/21 01:12:31;;;;;;;3.05;1.92;;;;;;;-4.39;97.94;102590.06;4794356;29;20482;-77
2021/12/21 01:19:59;;;;;;;4.32;2.10;;;;;;;-4.49;97.63;102579.03;4810551;29;20035;-77
2021/12/21 01:22:50;;;;;;;4.55;2.33;;;;;;;-4.38;97.70;102599.66;4811478;29;20041;-77
2021/12/21 01:25:58;;;;;;;6.13;2.20;;;;;;;-4.76;97.81;102528.41;4810458;29;20122;-77
2021/12/21 01:28:08;;;;;;;4.07;2.80;;;;;;;-4.41;97.78;102599.75;4807087;29;20042;-77
2021/12/21 01:35:54;;;;;;;4.50;2.22;;;;;;;-4.53;97.80;102587.09;4811326;29;20054;-77
2021/12/21 01:38:28;;;;;;;6.40;2.50;;;;;;;-4.54;97.75;102586.22;4811090;29;20099;-77
2021/12/21 01:43:36;;;;;;;4.60;2.42;;;;;;;-4.67;97.62;102576.25;4795156;29;20038;-77
2021/12/21 01:51:29;;;;;;;2.95;2.28;;;;;;;-4.63;97.76;102567.34;4807489;29;20038;-77
2021/12/21 01:53:55;;;;;;;6.55;2.90;;;;;;;-4.46;97.62;102585.97;4807543;29;20035;-77
2021/12/21 01:56:23;;;;;;;8.32;2.63;;;;;;;-4.42;97.61;102584.91;4806026;29;20046;-77
2021/12/21 01:58:49;;;;;;;5.82;2.90;;;;;;;-4.39;97.86;102573.44;4808700;29;20068;-78
2021/12/21 02:01:17;;;;;;;5.05;2.95;;;;;;;-4.47;97.41;102557.94;4807080;29;20039;-77
2021/12/21 02:03:47;;;;;;;6.72;3.03;;;;;;;-4.49;97.57;102550.13;4815039;29;20057;-77
2021/12/21 02:06:15;;;;;;;6.57;2.90;;;;;;;-4.53;97.79;102539.81;4825481;29;20030;-77
2021/12/21 02:08:40;;;;;;;6.07;2.78;;;;;;;-4.33;97.25;102568.81;4826222;29;20050;-77
2021/12/21 02:11:06;;;;;;;3.63;2.60;;;;;;;-4.34;97.39;102568.84;4797673;29;20030;-78
2021/12/21 02:13:35;;;;;;;5.13;2.70;;;;;;;-4.39;97.68;102561.16;4807785;29;20046;-77
2021/12/21 02:16:01;;;;;;;4.30;2.55;;;;;;;-4.34;97.41;102560.97;4826751;29;20035;-77
2021/12/21 02:20:57;;;;;;;4.80;2.80;;;;;;;-4.28;97.53;102561.56;4810569;29;20402;-77
2021/12/21 02:23:31;;;;;;;4.30;2.40;;;;;;;-4.33;97.41;102558.28;4805524;29;20465;-77
2021/12/21 02:28:37;;;;;;;4.78;2.70;;;;;;;-4.27;97.35;102546.69;4810188;29;20121;-77
2021/12/21 02:31:03;;;;;;;6.00;3.05;;;;;;;-4.22;97.21;102547.34;4839746;29;20034;-77
2021/12/21 02:33:29;;;;;;;6.05;3.08;;;;;;;-4.14;97.24;102554.91;4825184;29;20030;-77
2021/12/21 02:35:57;;;;;;;4.80;2.90;;;;;;;-4.33;97.38;102511.00;4824636;29;20038;-77
2021/12/21 02:38:23;;;;;;;5.35;3.10;;;;;;;-4.13;97.43;102525.09;4824669;29;20460;-77
2021/12/21 02:40:49;;;;;;;5.50;3.17;;;;;;;-3.98;97.43;102548.13;4824572;29;20114;-77
2021/12/21 02:43:15;;;;;;;4.90;2.85;;;;;;;-3.93;97.36;102546.19;4825084;29;20147;-76
2021/12/21 02:45:42;;;;;;;4.95;3.10;;;;;;;-3.91;97.30;102540.84;4824039;29;20030;-77
2021/12/21 02:48:08;;;;;;;4.95;2.75;;;;;;;-3.90;97.54;102546.06;4826828;29;20034;-77
2021/12/21 02:50:36;;;;;;;8.25;2.80;;;;;;;-3.88;97.51;102536.31;4810028;29;20031;-77
2021/12/21 02:53:02;;;;;;;4.65;2.50;;;;;;;-3.87;97.81;102530.16;4809838;29;20039;-77
2021/12/21 02:55:28;;;;;;;6.03;3.05;;;;;;;-3.84;97.83;102530.03;4824040;29;20034;-77
2021/12/21 02:57:57;;;;;;;7.00;3.00;;;;;;;-3.94;97.98;102506.78;4809558;29;20082;-77
2021/12/21 03:00:25;;;;;;;7.22;3.05;;;;;;;-3.81;97.87;102529.91;4824464;29;20027;-77
2021/12/21 03:02:50;;;;;;;4.35;2.97;;;;;;;-3.86;97.80;102512.59;4825377;29;20087;-77
2021/12/21 03:05:16;;;;;;;4.00;2.70;;;;;;;-3.88;97.90;102512.66;4824252;29;20470;-77
2021/12/21 03:10:33;;;;;;;3.90;2.50;;;;;;;-3.78;98.18;102531.53;4802063;29;20050;-77
2021/12/21 03:15:27;;;;;;;4.75;2.70;;;;;;;-3.83;98.09;102528.25;4824982;29;20446;-77
2021/12/21 03:17:55;;;;;;;3.75;2.72;;;;;;;-3.90;98.29;102534.69;4827244;29;20496;-77
2021/12/21 03:20:21;;;;;;;4.25;2.65;;;;;;;-4.04;97.93;102512.44;4792978;29;20088;-77
2021/12/21 03:22:47;;;;;;;4.13;2.50;;;;;;;-4.07;98.26;102516.97;4809077;29;20034;-77
2021/12/21 03:25:13;;;;;;;3.75;2.30;;;;;;;-4.03;98.33;102529.94;4809048;29;20103;-77
2021/12/21 03:27:39;;;;;;;4.20;2.53;;;;;;;-4.09;98.35;102529.31;4808982;29;20030;-77
2021/12/21 03:30:07;;;;;;;5.28;2.78;;;;;;;-4.41;98.08;102475.41;4810508;29;20069;-77
2021/12/21 03:32:33;;;;;;;4.00;2.30;;;;;;;-4.17;98.35;102520.88;4809539;29;20665;-77
2021/12/21 03:34:59;;;;;;;6.18;2.60;;;;;;;-4.19;98.18;102523.56;4808417;29;20046;-77
2021/12/21 03:37:24;;;;;;;4.82;2.45;;;;;;;-4.23;98.34;102524.63;4826026;29;20041;-77
2021/12/21 03:39:52;;;;;;;4.00;2.60;;;;;;;-4.31;98.21;102516.16;4809174;29;20583;-77
2021/12/21 03:42:17;;;;;;;5.50;2.83;;;;;;;-4.46;98.29;102501.88;4809583;29;20038;-77
2021/12/21 03:44:43;;;;;;;5.93;2.53;;;;;;;-4.32;98.10;102530.25;4824007;29;20030;-78
2021/12/21 03:47:10;;;;;;;5.53;2.28;;;;;;;-4.37;98.12;102540.94;4809420;29;20054;-77
2021/12/21 03:52:10;;;;;;;4.95;2.53;;;;;;;-4.53;97.99;102524.06;4824511;29;20351;-76
2021/12/21 03:54:36;;;;;;;6.00;2.63;;;;;;;-4.45;98.07;102537.75;4822868;29;20449;-77
2021/12/21 03:57:02;;;;;;;4.50;2.35;;;;;;;-4.58;97.93;102531.25;4809764;29;20135;-77
2021/12/21 03:59:28;;;;;;;3.60;2.10;;;;;;;-4.80;98.41;102502.31;4808624;29;20026;-77
2021/12/21 04:01:53;;;;;;;5.53;2.50;;;;;;;-4.69;98.19;102520.31;4809607;29;20048;-77
2021/12/21 04:04:19;;;;;;;5.18;2.22;;;;;;;-4.63;98.15;102535.84;4793399;29;20065;-77
2021/12/21 04:06:46;;;;;;;5.93;2.50;;;;;;;-4.67;98.13;102528.97;4809496;29;20038;-77
2021/12/21 04:09:13;;;;;;;5.45;2.47;;;;;;;-4.91;97.97;102489.59;4824771;29;20041;-77
2021/12/21 04:11:39;;;;;;;5.55;2.30;;;;;;;-4.75;98.13;102529.25;4825069;29;20039;-77
2021/12/21 04:14:05;;;;;;;4.72;2.30;;;;;;;-4.86;98.04;102515.69;4824824;29;20351;-77
2021/12/21 04:16:30;;;;;;;4.30;2.33;;;;;;;-4.76;98.12;102527.56;4824134;29;20041;-77
2021/12/21 04:18:56;;;;;;;4.30;2.17;;;;;;;-4.75;98.03;102519.59;4822594;29;20027;-77
2021/12/21 04:21:21;;;;;;;4.40;2.22;;;;;;;-4.86;97.92;102492.91;4808587;29;20034;-77
2021/12/21 04:23:47;;;;;;;5.25;2.28;;;;;;;-4.72;98.13;102523.91;4824848;29;20042;-77
2021/12/21 04:26:15;;;;;;;5.13;2.33;;;;;;;-4.98;98.11;102475.00;4807602;29;20442;-77
2021/12/21 04:28:41;;;;;;;6.68;2.58;;;;;;;-4.78;97.97;102508.38;4808260;29;20037;-77
2021/12/21 04:31:07;;;;;;;4.28;2.42;;;;;;;-4.92;98.07;102482.63;4808454;29;20040;-77
2021/12/21 04:33:33;;;;;;;4.90;2.70;;;;;;;-4.71;98.13;102507.22;4823282;29;20023;-77
2021/12/21 04:36:00;;;;;;;5.50;2.78;;;;;;;-4.70;98.15;102506.31;4808456;29;20407;-76
2021/12/21 04:38:30;;;;;;;6.25;2.65;;;;;;;-4.69;98.08;102505.41;4807924;29;20700;-77
2021/12/21 04:41:12;;;;;;;5.57;2.60;;;;;;;-4.70;98.39;102506.31;4822523;29;20026;-77
2021/12/21 04:43:38;;;;;;;6.32;2.80;;;;;;;-4.70;98.31;102505.44;4823580;29;20126;-77
2021/12/21 04:46:03;;;;;;;4.93;2.63;;;;;;;-4.72;98.26;102508.13;4820001;29;20054;-77
2021/12/21 04:48:29;;;;;;;5.45;2.88;;;;;;;-4.75;98.22;102495.97;4809527;29;20041;-77
2021/12/21 04:50:55;;;;;;;5.88;2.53;;;;;;;-4.77;98.25;102496.94;4824144;29;20042;-77
2021/12/21 04:53:20;;;;;;;4.18;2.70;;;;;;;-4.76;98.16;102503.94;4809024;29;20469;-77
2021/12/21 04:55:46;;;;;;;5.63;2.55;;;;;;;-4.80;98.22;102511.06;4827778;29;20107;-77
2021/12/21 04:58:11;;;;;;;4.18;2.60;;;;;;;-4.82;98.48;102509.41;4824720;29;20030;-77
2021/12/21 05:00:38;;;;;;;4.45;2.42;;;;;;;-4.85;98.35;102502.50;4825440;29;20038;-77
2021/12/21 05:03:05;;;;;;;5.03;2.30;;;;;;;-4.85;98.27;102513.00;4808209;29;20095;-77
2021/12/21 05:05:31;;;;;;;4.32;2.50;;;;;;;-4.84;98.27;102512.06;4815071;29;20087;-77
2021/12/21 05:08:08;;;;;;;5.68;2.60;;;;;;;-4.99;98.40;102475.91;4824174;29;20151;-77
2021/12/21 05:10:47;;;;;;;4.45;2.38;;;;;;;-4.91;98.20;102497.47;4824141;29;20457;-77
2021/12/21 05:13:14;;;;;;;4.25;2.40;;;;;;;-5.01;98.13;102485.59;4823814;29;20414;-78
2021/12/21 05:15:39;;;;;;;6.50;3.28;;;;;;;-4.93;98.40;102494.06;4823006;29;20034;-77
2021/12/21 05:18:05;;;;;;;6.03;2.90;;;;;;;-5.24;98.18;102450.56;4823587;29;20386;-77
2021/12/21 05:20:31;;;;;;;6.07;3.00;;;;;;;-5.06;98.28;102477.06;4821384;29;20094;-78
2021/12/21 05:22:56;;;;;;;7.97;3.30;;;;;;;-4.97;98.32;102490.69;4814268;29;20339;-78
2021/12/21 05:25:21;;;;;;;11.80;3.30;;;;;;;-4.96;98.27;102489.78;4811572;29;20445;-77
2021/12/21 05:27:47;;;;;;;7.50;2.75;;;;;;;-4.95;98.17;102490.63;4825855;29;20082;-78
2021/12/21 05:30:13;;;;;;;4.68;2.65;;;;;;;-4.96;98.23;102489.78;4825278;29;20354;-77
2021/12/21 05:32:38;;;;;;;6.28;2.80;;;;;;;-4.96;98.33;102488.94;4826676;29;20078;-77
2021/12/21 05:35:04;;;;;;;6.15;2.60;;;;;;;-5.00;98.32;102482.06;4823934;29;20030;-78
2021/12/21 05:37:30;;;;;;;7.15;3.00;;;;;;;-4.96;98.42;102488.94;4790598;29;20049;-78
2021/12/21 05:40:01;;;;;;;5.88;3.00;;;;;;;-5.02;98.38;102465.53;4824020;29;20027;-79
2021/12/21 05:42:27;;;;;;;8.18;3.40;;;;;;;-4.93;98.35;102482.69;4827450;29;20030;-78
2021/12/21 05:44:52;;;;;;;8.18;3.95;;;;;;;-5.11;98.42;102461.47;4829485;29;20028;-79
2021/12/21 05:47:18;;;;;;;7.30;3.65;;;;;;;-5.03;98.39;102471.69;4820176;29;20499;-78
2021/12/21 05:49:44;;;;;;;6.22;4.03;;;;;;;-5.06;98.18;102470.03;4821840;29;20075;-78
2021/12/21 05:52:10;;;;;;;8.07;3.55;;;;;;;-4.99;98.43;102481.16;4822863;29;20521;-79
2021/12/21 05:54:35;;;;;;;7.00;2.90;;;;;;;-5.23;98.42;102433.09;4835905;29;20113;-78
2021/12/21 05:57:01;;;;;;;5.90;2.90;;;;;;;-5.13;98.40;102446.69;4813773;29;20114;-78
2021/12/21 05:59:27;;;;;;;9.93;3.30;;;;;;;-5.21;98.26;102426.84;4825994;29;20393;-78
2021/12/21 06:01:52;;;;;;;6.20;2.58;;;;;;;-5.08;97.94;102440.34;4822347;29;20035;-78
2021/12/21 06:04:18;;;;;;;6.13;2.90;;;;;;;-4.96;98.31;102462.69;4811202;29;20125;-79
2021/12/21 06:06:43;;;;;;;5.90;2.75;;;;;;;-4.97;98.16;102453.06;4810680;29;20045;-79
2021/12/21 06:09:11;;;;;;;6.57;2.45;;;;;;;-4.93;98.01;102459.06;4797382;29;20038;-78
2021/12/21 06:11:43;;;;;;;4.95;2.30;;;;;;;-4.94;97.99;102458.19;4823378;29;20114;-78
2021/12/21 06:14:33;;;;;;;4.85;2.90;;;;;;;-4.92;98.05;102460.78;4824415;29;20038;-78
2021/12/21 06:27:41;;;;;;;8.88;3.50;;;;;;;-5.30;98.08;102364.19;4824760;29;20099;-77
2021/12/21 06:30:07;;;;;;;8.68;3.83;;;;;;;-4.94;98.52;102429.31;4810279;29;20042;-77
2021/12/21 06:32:33;;;;;;;6.07;3.38;;;;;;;-4.78;98.22;102456.69;4824812;29;20042;-77
2021/12/21 06:34:59;;;;;;;7.65;4.18;;;;;;;-4.76;98.57;102454.88;4807274;29;20060;-77
2021/12/21 06:37:24;;;;;;;6.85;3.95;;;;;;;-4.75;98.53;102455.72;4809512;29;20149;-77
2021/12/21 06:39:50;;;;;;;7.10;3.80;;;;;;;-5.06;98.28;102408.81;4819907;29;20558;-78
2021/12/21 06:42:16;;;;;;;10.05;4.07;;;;;;;-4.77;98.51;102445.31;4820476;29;20475;-77
2021/12/21 06:44:44;;;;;;;9.77;3.90;;;;;;;-4.69;98.63;102452.03;4810782;29;20038;-77
2021/12/21 06:52:42;;;;;;;9.20;4.05;;;;;;;-4.65;98.67;102466.75;4834042;29;20049;-77
2021/12/21 06:55:08;;;;;;;9.25;4.05;;;;;;;-4.66;98.64;102465.03;4818145;29;20026;-77
2021/12/21 06:57:34;;;;;;;9.95;3.90;;;;;;;-4.75;98.58;102453.97;4805596;29;20034;-77
2021/12/21 07:00:00;;;;;;;6.47;3.33;;;;;;;-4.77;98.68;102461.06;4814860;29;20038;-77
2021/12/21 07:02:26;;;;;;;7.53;3.38;;;;;;;-4.97;98.80;102437.31;4809032;29;20035;-77
2021/12/21 07:04:52;;;;;;;9.13;3.25;;;;;;;-4.84;98.84;102464.81;4804135;29;20058;-77
2021/12/21 07:07:17;;;;;;;7.38;3.28;;;;;;;-4.79;98.72;102465.50;4806684;29;20031;-77
2021/12/21 07:09:47;;;;;;;10.52;3.33;;;;;;;-4.91;98.86;102441.47;4806586;29;20644;-78
2021/12/21 07:20:25;;;;;;;12.82;4.00;;;;;;;-4.64;98.60;102457.94;4805684;29;20492;-78
2021/12/21 07:22:51;;;;;;;9.60;3.22;;;;;;;-4.62;98.50;102464.84;4806531;29;20039;-77
2021/12/21 07:25:16;;;;;;;15.95;3.80;;;;;;;-4.60;98.51;102451.63;4806507;29;20188;-77
2021/12/21 07:27:43;;;;;;;9.75;3.60;;;;;;;-4.65;98.62;102450.97;4805814;29;20054;-78
2021/12/21 07:30:09;;;;;;;8.30;3.60;;;;;;;-4.60;98.80;102459.50;4791028;29;20481;-78
2021/12/21 07:32:35;;;;;;;9.50;3.85;;;;;;;-4.58;98.77;102463.78;4805831;29;20057;-77
2021/12/21 07:35:01;;;;;;;10.05;4.32;;;;;;;-4.89;98.77;102406.38;4806057;29;20027;-77
2021/12/21 07:37:26;;;;;;;12.43;3.95;;;;;;;-4.59;98.71;102451.59;4805885;29;20467;-77
2021/12/21 07:39:52;;;;;;;9.60;4.80;;;;;;;-4.46;98.71;102465.09;4805003;29;20711;-77
2021/12/21 07:42:19;;;;;;;9.00;3.55;;;;;;;-4.49;98.81;102452.09;4805785;29;20027;-78
2021/12/21 07:44:46;;;;;;;8.65;4.35;;;;;;;-4.28;98.72;102474.00;4805367;29;20142;-78
2021/12/21 07:47:11;;;;;;;9.10;4.50;;;;;;;-4.29;98.45;102449.50;4804893;29;20047;-78
2021/12/21 07:49:37;;;;;;;6.68;3.80;;;;;;;-4.23;98.62;102444.91;4805533;29;20329;-78
2021/12/21 07:52:03;;;;;;;6.15;2.92;;;;;;;-4.10;98.74;102454.00;4806302;29;20471;-77
2021/12/21 07:54:28;;;;;;;7.57;3.70;;;;;;;-4.04;98.90;102456.34;4804051;29;20378;-78
2021/12/21 07:56:54;;;;;;;7.40;4.00;;;;;;;-4.12;99.04;102434.81;4807585;29;20034;-78
2021/12/21 07:59:20;;;;;;;6.72;3.72;;;;;;;-3.93;98.88;102454.16;4805449;29;20039;-77
2021/12/21 08:01:45;;;;;;;8.10;3.58;;;;;;;-3.91;98.75;102452.28;4805792;29;20378;-78
2021/12/21 08:04:11;;;;;;;7.03;3.20;;;;;;;-3.92;98.83;102442.69;4812965;29;20144;-77
2021/12/21 08:06:38;;;;;;;6.40;3.30;;;;;;;-3.99;99.07;102430.75;4824433;29;20042;-77
2021/12/21 08:09:04;;;;;;;4.70;3.20;;;;;;;-4.02;99.20;102420.34;4823600;29;20030;-78
2021/12/21 08:14:00;;;;;;;5.20;2.70;;;;;;;-3.89;99.07;102428.56;4824526;29;20385;-78
2021/12/21 08:16:26;;;;;;;6.30;3.00;;;;;;;-3.75;99.35;102447.22;4807490;29;20484;-78
2021/12/21 08:18:51;;;;;;;4.68;3.10;;;;;;;-3.72;99.35;102448.88;4824670;29;20054;-78
2021/12/21 08:21:18;;;;;;;6.32;3.38;;;;;;;-3.73;99.08;102442.78;4823169;29;20030;-78
2021/12/21 08:23:45;;;;;;;6.93;3.10;;;;;;;-3.65;99.26;102439.81;4824608;29;20099;-78
2021/12/21 08:26:11;;;;;;;4.72;2.75;;;;;;;-3.63;99.27;102438.81;4823242;29;20030;-78
2021/12/21 08:28:37;;;;;;;9.20;3.50;;;;;;;-3.64;98.95;102423.09;4794381;29;20470;-77
2021/12/21 08:31:03;;;;;;;5.18;3.53;;;;;;;-3.53;99.09;102428.75;4793308;29;20110;-78
2021/12/21 08:33:28;;;;;;;6.05;3.47;;;;;;;-3.45;99.06;102442.41;4806975;29;20112;-78
2021/12/21 08:35:54;;;;;;;7.93;3.38;;;;;;;-3.58;99.18;102410.50;4807190;29;20540;-78
2021/12/21 08:38:20;;;;;;;10.57;3.78;;;;;;;-3.35;98.96;102438.44;4824303;29;20113;-78
2021/12/21 08:40:53;;;;;;;7.53;3.72;;;;;;;-3.29;99.32;102436.47;4792834;29;20034;-78
2021/12/21 08:43:24;;;;;;;10.43;3.35;;;;;;;-3.22;99.13;102443.16;4825079;29;20121;-77
2021/12/21 08:45:52;;;;;;;6.00;3.20;;;;;;;-3.18;99.23;102437.69;4812014;29;20111;-78
2021/12/21 08:48:18;;;;;;;9.38;2.85;;;;;;;-3.60;99.08;102364.16;4825335;29;20086;-78
2021/12/21 08:50:45;;;;;;;4.65;2.63;;;;;;;-3.21;99.21;102408.88;4814351;29;20049;-78
2021/12/21 08:53:13;;;;;;;5.45;2.80;;;;;;;-3.01;99.15;102426.38;4826607;29;20110;-78
2021/12/21 08:55:40;;;;;;;7.93;3.03;;;;;;;-2.94;99.07;102426.94;4807298;29;20034;-78
2021/12/21 08:58:06;;;;;;;5.10;2.53;;;;;;;-2.88;99.32;102426.63;4812510;29;20030;-78
2021/12/21 09:00:31;;;;;;;3.35;2.53;;;;;;;-2.81;98.96;102429.84;4826494;29;20034;-78
2021/12/21 09:02:57;;;;;;;4.57;2.50;;;;;;;-2.78;98.72;102421.78;4810931;29;20029;-76
2021/12/21 09:05:26;;;;;;;5.38;2.60;;;;;;;-3.15;98.69;102353.28;4802791;29;20045;-78
2021/12/21 09:07:53;;;;;;;5.13;2.50;;;;;;;-2.63;99.18;102421.06;4827571;29;20060;-78
2021/12/21 09:10:20;;;;;;;5.82;2.67;;;;;;;-2.66;98.81;102408.03;4825727;29;20121;-78
2021/12/21 09:12:45;;;;;;;5.75;3.00;;;;;;;-2.70;98.83;102382.78;4826860;29;20042;-77
2021/12/21 09:15:13;;;;;;;5.07;2.42;;;;;;;-2.45;98.63;102409.66;4825614;29;20040;-78
2021/12/21 09:17:40;;;;;;;6.65;2.15;;;;;;;-2.39;99.14;102411.94;4812019;29;20035;-78
2021/12/21 09:20:07;;;;;;;4.00;2.20;;;;;;;-2.30;98.77;102415.06;4825934;29;20466;-78
2021/12/21 09:22:33;;;;;;;5.10;2.47;;;;;;;-2.24;98.69;102414.78;4798136;29;20031;-78
2021/12/21 09:24:59;;;;;;;6.78;2.55;;;;;;;-2.30;98.57;102397.47;4826406;29;20114;-78
2021/12/21 09:27:25;;;;;;;5.32;2.47;;;;;;;-2.09;98.86;102421.91;4825172;29;20072;-78
2021/12/21 09:29:51;;;;;;;4.22;2.72;;;;;;;-2.03;98.55;102432.16;4825313;29;20407;-78
2021/12/21 09:32:18;;;;;;;5.38;2.55;;;;;;;-2.08;98.44;102415.72;4811463;29;20098;-78
2021/12/21 09:34:44;;;;;;;6.30;2.75;;;;;;;-1.96;98.79;102428.25;4825011;29;20042;-78
2021/12/21 09:37:15;;;;;;;5.72;2.97;;;;;;;-1.84;98.89;102441.78;4826721;29;20058;-78
2021/12/21 09:39:52;;;;;;;7.88;2.50;;;;;;;-1.85;98.52;102416.31;4825641;29;20038;-78
2021/12/21 09:42:26;;;;;;;5.60;2.35;;;;;;;-1.83;98.77;102415.28;4812174;29;20811;-78
2021/12/21 09:44:52;;;;;;;4.82;2.33;;;;;;;-1.66;98.73;102435.53;4827378;29;20049;-78
2021/12/21 09:47:18;;;;;;;3.88;2.50;;;;;;;-1.61;98.61;102440.59;4825216;29;20042;-78
2021/12/21 09:49:46;;;;;;;4.60;2.30;;;;;;;-1.59;99.15;102433.41;4825985;29;20034;-78
2021/12/21 09:52:16;;;;;;;5.90;3.10;;;;;;;-1.60;98.92;102426.44;4826746;29;20057;-78
2021/12/21 09:54:41;;;;;;;3.10;2.30;;;;;;;-1.70;99.02;102403.16;4810104;29;20034;-78
2021/12/21 09:57:08;;;;;;;4.82;2.30;;;;;;;-1.58;99.04;102409.59;4821484;29;20038;-78
2021/12/21 09:59:34;;;;;;;6.97;2.25;;;;;;;-1.43;99.19;102423.75;4826435;29;20030;-78
2021/12/21 10:02:02;;;;;;;4.75;2.25;;;;;;;-1.50;98.92;102407.41;4817922;29;20022;-78
2021/12/21 10:04:28;;;;;;;8.15;2.90;;;;;;;-1.44;98.67;102414.16;4823696;29;20054;-78
2021/12/21 10:06:56;;;;;;;12.23;2.78;;;;;;;-1.39;98.94;102413.88;4810320;29;20047;-78
2021/12/21 10:09:33;;;;;;;4.03;2.17;;;;;;;-1.30;99.31;102424.81;4825519;29;20038;-78
2021/12/21 10:11:59;;;;;;;4.15;2.40;;;;;;;-1.46;98.96;102394.88;4816717;29;20118;-78
2021/12/21 10:14:26;;;;;;;3.78;2.20;;;;;;;-1.22;99.32;102425.28;4826325;29;20110;-78
2021/12/21 10:17:06;;;;;;;3.50;2.20;;;;;;;-1.16;99.24;102428.50;4818725;29;20042;-78
2021/12/21 10:19:32;;;;;;;5.43;2.75;;;;;;;-1.20;99.14;102428.66;4826105;29;20373;-78
2021/12/21 10:22:13;;;;;;;5.65;3.20;;;;;;;-1.10;99.21;102431.66;4795097;29;20064;-78
2021/12/21 10:24:47;;;;;;;5.47;2.60;;;;;;;-1.27;99.21;102389.47;4823076;29;20489;-78
2021/12/21 10:27:13;;;;;;;5.68;2.40;;;;;;;-1.14;99.22;102411.63;4826182;29;20113;-78
2021/12/21 10:29:46;;;;;;;4.07;2.67;;;;;;;-1.04;98.82;102427.84;4810594;29;20049;-78
2021/12/21 10:32:21;;;;;;;5.18;2.25;;;;;;;-1.13;99.11;102405.41;4801102;29;20133;-78
2021/12/21 10:35:08;;;;;;;6.28;2.38;;;;;;;-1.11;98.87;102407.97;4824946;29;20113;-78
2021/12/21 10:37:37;;;;;;;3.40;2.25;;;;;;;-1.02;98.79;102408.34;4816206;29;20030;-78
2021/12/21 10:40:21;;;;;;;4.80;2.70;;;;;;;-0.97;98.97;102414.19;4826614;29;20030;-78
2021/12/21 10:42:51;;;;;;;5.68;2.42;;;;;;;-0.95;99.03;102414.13;4826306;29;20054;-78
2021/12/21 10:45:24;;;;;;;6.25;2.20;;;;;;;-1.06;98.64;102396.22;4825389;29;20034;-78
2021/12/21 10:47:50;;;;;;;5.65;2.10;;;;;;;-0.90;98.82;102411.22;4824348;29;20030;-77
2021/12/21 10:50:16;;;;;;;5.40;1.98;;;;;;;-0.90;98.76;102405.94;4825691;29;20087;-78
2021/12/21 10:52:47;;;;;;;3.42;2.20;;;;;;;-1.02;98.40;102376.63;4804681;29;20473;-78
2021/12/21 10:55:13;;;;;;;4.20;2.08;;;;;;;-1.04;98.82;102369.72;4810324;29;20063;-78
2021/12/21 10:57:38;;;;;;;4.90;2.08;;;;;;;-0.85;98.82;102399.47;4810034;29;20223;-78
2021/12/21 11:00:13;;;;;;;5.10;2.72;;;;;;;-0.83;98.27;102394.06;4807916;29;20034;-80
2021/12/21 11:02:40;;;;;;;3.85;2.65;;;;;;;-0.78;98.76;102392.91;4825438;29;20469;-78
2021/12/21 11:05:09;;;;;;;5.05;2.15;;;;;;;-0.96;98.58;102364.84;4826395;29;20050;-78
2021/12/21 11:07:54;;;;;;;3.15;2.17;;;;;;;-0.74;98.91;102396.22;4812615;29;20098;-77
2021/12/21 11:10:26;;;;;;;7.22;2.30;;;;;;;-0.72;98.51;102392.56;4810126;29;20366;-77
2021/12/21 11:12:56;;;;;;;7.97;2.42;;;;;;;-0.71;98.73;102394.25;4824329;29;20034;-77
2021/12/21 11:15:29;;;;;;;4.43;2.30;;;;;;;-0.81;98.46;102357.84;4820596;29;20038;-76
2021/12/21 11:18:18;;;;;;;4.15;2.78;;;;;;;-0.67;98.56;102383.50;4819472;29;20029;-77
2021/12/21 11:20:48;;;;;;;4.20;2.42;;;;;;;-0.68;98.35;102380.00;4819718;29;20026;-76
2021/12/21 11:23:15;;;;;;;3.83;2.20;;;;;;;-0.65;98.36;102386.91;4819824;29;20059;-76
2021/12/21 11:25:43;;;;;;;3.55;2.35;;;;;;;-0.79;98.62;102359.47;4804414;29;20034;-77
2021/12/21 11:28:12;;;;;;;3.70;2.15;;;;;;;-0.70;98.40;102368.66;4819949;29;20107;-78
2021/12/21 11:30:38;;;;;;;4.03;2.00;;;;;;;-0.60;98.83;102382.22;4819801;29;20033;-77
2021/12/21 11:33:07;;;;;;;3.75;1.95;;;;;;;-0.58;98.54;102382.97;4803624;29;20343;-77
2021/12/21 11:38:08;;;;;;;5.68;2.28;;;;;;;-0.71;98.15;102345.81;4802396;29;20100;-78
2021/12/21 11:40:36;;;;;;;;;;;;;;;-0.52;98.33;102377.34;4820269;29;20031;-78
2021/12/21 11:43:23;;;;;;;6.28;2.20;;;;;;;-0.49;98.42;102378.00;4808634;29;19928;-78
2021/12/21 11:46:14;;;;;;;4.28;2.10;;;;;;;-0.45;97.79;102378.69;4814843;29;20022;-77
2021/12/21 11:49:01;;;;;;;4.55;2.25;;;;;;;-0.42;97.83;102364.44;4818199;29;20023;-78
2021/12/21 11:51:27;;;;;;;7.05;2.80;;;;;;;-0.41;98.25;102368.78;4809081;29;20031;-78
2021/12/21 11:53:55;;;;;;;4.25;2.35;;;;;;;-0.41;97.81;102356.41;4821235;29;20160;-78
2021/12/21 11:56:25;;;;;;;3.97;1.88;;;;;;;-0.56;97.76;102336.16;4792749;29;20775;-77
2021/12/21 11:58:53;;;;;;;8.55;3.53;;;;;;;-0.36;97.95;102366.75;4818710;29;20045;-78
2021/12/21 12:01:23;;;;;;;3.38;2.05;;;;;;;-0.45;97.69;102340.81;4818842;29;20349;-77
2021/12/21 12:03:55;;;;;;;3.65;2.20;;;;;;;-0.34;97.42;102364.84;4808835;29;20050;-78
2021/12/21 12:06:21;;;;;;;4.20;2.00;;;;;;;-0.44;97.50;102337.22;4820503;29;20464;-78
2021/12/21 12:09:09;;;;;;;5.43;2.13;;;;;;;-0.31;97.21;102359.38;4808565;29;20034;-78
2021/12/21 12:11:39;;;;;;;2.95;1.70;;;;;;;-0.28;97.25;102353.91;4820529;29;20061;-78
2021/12/21 12:14:09;;;;;;;3.45;1.80;;;;;;;-0.26;97.21;102352.03;4808882;29;20502;-78
2021/12/21 12:16:49;;;;;;;5.68;2.30;;;;;;;-0.25;97.27;102351.91;4817852;29;20026;-78
2021/12/21 12:19:38;;;;;;;5.93;3.60;;;;;;;-0.42;96.82;102328.28;4818052;29;20117;-78
2021/12/21 12:22:11;;;;;;;4.65;3.10;;;;;;;-0.21;96.85;102364.97;4832793;29;20040;-78
2021/12/21 12:24:45;;;;;;;3.40;1.83;;;;;;;-0.20;96.53;102361.38;4826754;29;20034;-78
2021/12/21 12:27:20;;;;;;;6.00;1.70;;;;;;;-0.33;96.33;102335.66;4823243;29;20423;-78
2021/12/21 12:29:49;;;;;;;3.72;1.77;;;;;;;-0.18;96.40;102357.69;4808509;29;20034;-78
2021/12/21 12:32:16;;;;;;;6.38;2.28;;;;;;;-0.28;96.16;102336.22;4807276;29;20377;-78
2021/12/21 12:34:42;;;;;;;4.85;2.20;;;;;;;-0.16;96.28;102354.97;4807693;29;20034;-78